sensor_id;sensor_type;location;lat;lon;timestamp;P1;durP1;ratioP1;P2;durP2;ratioP2
15126;SDS011;7664;52.008;4.748;2024-01-11T00:01:47;12.65;;;7.32;;
15126;SDS011;7664;52.008;4.748;2024-01-11T00:04:21;13.75;;;7.40;;
15126;SDS011;7664;52.008;4.748;2024-01-11T00:06:50;13.23;;;8.02;;
15126;SDS011;7664;52.008;4.748;2024-01-11T00:09:19;11.82;;;7.75;;
15126;SDS011;7664;52.008;4.748;2024-01-11T00:11:50;12.73;;;7.38;;
15126;SDS011;7664;52.008;4.748;2024-01-11T00:14:19;14.55;;;8.85;;
15126;SDS011;7664;52.008;4.748;2024-01-11T00:16:49;13.98;;;7.90;;
15126;SDS011;7664;52.008;4.748;2024-01-11T00:19:18;14.13;;;8.05;;
15126;SDS011;7664;52.008;4.748;2024-01-11T00:21:47;14.23;;;8.13;;
15126;SDS011;7664;52.008;4.748;2024-01-11T00:24:22;14.65;;;8.48;;
15126;SDS011;7664;52.008;4.748;2024-01-11T00:26:55;13.88;;;8.23;;
15126;SDS011;7664;52.008;4.748;2024-01-11T00:29:23;13.65;;;8.18;;
15126;SDS011;7664;52.008;4.748;2024-01-11T00:31:52;12.82;;;8.32;;
15126;SDS011;7664;52.008;4.748;2024-01-11T00:34:20;13.90;;;7.93;;
15126;SDS011;7664;52.008;4.748;2024-01-11T00:36:49;13.50;;;8.25;;
15126;SDS011;7664;52.008;4.748;2024-01-11T00:39:24;18.63;;;8.52;;
15126;SDS011;7664;52.008;4.748;2024-01-11T00:41:52;12.18;;;7.13;;
15126;SDS011;7664;52.008;4.748;2024-01-11T00:44:21;13.20;;;7.88;;
15126;SDS011;7664;52.008;4.748;2024-01-11T00:46:54;14.93;;;9.13;;
15126;SDS011;7664;52.008;4.748;2024-01-11T00:49:23;14.55;;;8.27;;
15126;SDS011;7664;52.008;4.748;2024-01-11T00:51:58;17.20;;;8.00;;
15126;SDS011;7664;52.008;4.748;2024-01-11T00:54:30;13.27;;;8.23;;
15126;SDS011;7664;52.008;4.748;2024-01-11T00:57:01;14.00;;;7.82;;
15126;SDS011;7664;52.008;4.748;2024-01-11T00:59:30;14.30;;;9.18;;
15126;SDS011;7664;52.008;4.748;2024-01-11T01:02:01;13.27;;;7.93;;
15126;SDS011;7664;52.008;4.748;2024-01-11T01:04:29;14.85;;;9.38;;
15126;SDS011;7664;52.008;4.748;2024-01-11T01:07:00;18.20;;;8.18;;
15126;SDS011;7664;52.008;4.748;2024-01-11T01:09:33;16.38;;;9.48;;
15126;SDS011;7664;52.008;4.748;2024-01-11T01:12:07;13.98;;;8.98;;
15126;SDS011;7664;52.008;4.748;2024-01-11T01:14:36;13.93;;;7.97;;
15126;SDS011;7664;52.008;4.748;2024-01-11T01:17:04;14.73;;;9.00;;
15126;SDS011;7664;52.008;4.748;2024-01-11T01:19:33;13.35;;;8.50;;
15126;SDS011;7664;52.008;4.748;2024-01-11T01:22:06;16.33;;;9.98;;
15126;SDS011;7664;52.008;4.748;2024-01-11T01:24:39;15.85;;;9.27;;
15126;SDS011;7664;52.008;4.748;2024-01-11T01:27:10;13.18;;;8.73;;
15126;SDS011;7664;52.008;4.748;2024-01-11T01:29:39;15.05;;;8.43;;
15126;SDS011;7664;52.008;4.748;2024-01-11T01:32:08;14.13;;;8.93;;
15126;SDS011;7664;52.008;4.748;2024-01-11T01:34:41;15.18;;;8.60;;
15126;SDS011;7664;52.008;4.748;2024-01-11T01:37:14;17.27;;;10.20;;
15126;SDS011;7664;52.008;4.748;2024-01-11T01:39:44;15.93;;;10.18;;
15126;SDS011;7664;52.008;4.748;2024-01-11T01:42:17;15.45;;;9.20;;
15126;SDS011;7664;52.008;4.748;2024-01-11T01:44:48;17.40;;;10.30;;
15126;SDS011;7664;52.008;4.748;2024-01-11T01:47:18;17.38;;;8.35;;
15126;SDS011;7664;52.008;4.748;2024-01-11T01:49:47;15.55;;;8.23;;
15126;SDS011;7664;52.008;4.748;2024-01-11T01:52:24;15.95;;;8.13;;
15126;SDS011;7664;52.008;4.748;2024-01-11T01:54:56;16.23;;;8.05;;
15126;SDS011;7664;52.008;4.748;2024-01-11T01:57:25;15.98;;;8.50;;
15126;SDS011;7664;52.008;4.748;2024-01-11T01:59:54;15.63;;;7.13;;
15126;SDS011;7664;52.008;4.748;2024-01-11T02:02:23;21.55;;;10.23;;
15126;SDS011;7664;52.008;4.748;2024-01-11T02:04:51;17.48;;;8.57;;
15126;SDS011;7664;52.008;4.748;2024-01-11T02:07:20;13.07;;;7.68;;
15126;SDS011;7664;52.008;4.748;2024-01-11T02:09:50;17.40;;;7.68;;
15126;SDS011;7664;52.008;4.748;2024-01-11T02:12:20;16.90;;;8.05;;
15126;SDS011;7664;52.008;4.748;2024-01-11T02:14:49;14.32;;;8.32;;
15126;SDS011;7664;52.008;4.748;2024-01-11T02:17:20;14.48;;;8.25;;
15126;SDS011;7664;52.008;4.748;2024-01-11T02:19:56;14.63;;;8.55;;
15126;SDS011;7664;52.008;4.748;2024-01-11T02:22:26;14.70;;;8.30;;
15126;SDS011;7664;52.008;4.748;2024-01-11T02:25:00;16.67;;;9.73;;
15126;SDS011;7664;52.008;4.748;2024-01-11T02:27:30;15.13;;;9.63;;
15126;SDS011;7664;52.008;4.748;2024-01-11T02:29:58;17.02;;;10.50;;
15126;SDS011;7664;52.008;4.748;2024-01-11T02:32:27;16.45;;;10.27;;
15126;SDS011;7664;52.008;4.748;2024-01-11T02:34:56;16.05;;;8.80;;
15126;SDS011;7664;52.008;4.748;2024-01-11T02:37:25;18.85;;;9.88;;
15126;SDS011;7664;52.008;4.748;2024-01-11T02:39:53;18.40;;;10.27;;
15126;SDS011;7664;52.008;4.748;2024-01-11T02:42:22;16.25;;;9.38;;
15126;SDS011;7664;52.008;4.748;2024-01-11T02:44:50;19.17;;;11.65;;
15126;SDS011;7664;52.008;4.748;2024-01-11T02:47:19;19.85;;;10.45;;
15126;SDS011;7664;52.008;4.748;2024-01-11T02:49:46;18.40;;;10.63;;
15126;SDS011;7664;52.008;4.748;2024-01-11T02:52:15;20.58;;;10.57;;
15126;SDS011;7664;52.008;4.748;2024-01-11T02:54:44;17.13;;;9.85;;
15126;SDS011;7664;52.008;4.748;2024-01-11T02:57:12;19.38;;;11.07;;
15126;SDS011;7664;52.008;4.748;2024-01-11T02:59:42;21.33;;;11.15;;
15126;SDS011;7664;52.008;4.748;2024-01-11T03:02:11;17.58;;;9.95;;
15126;SDS011;7664;52.008;4.748;2024-01-11T03:04:40;17.77;;;11.75;;
15126;SDS011;7664;52.008;4.748;2024-01-11T03:07:10;19.20;;;10.63;;
15126;SDS011;7664;52.008;4.748;2024-01-11T03:09:39;20.38;;;12.43;;
15126;SDS011;7664;52.008;4.748;2024-01-11T03:12:10;18.13;;;10.45;;
15126;SDS011;7664;52.008;4.748;2024-01-11T03:14:39;19.35;;;10.68;;
15126;SDS011;7664;52.008;4.748;2024-01-11T03:17:12;17.35;;;10.63;;
15126;SDS011;7664;52.008;4.748;2024-01-11T03:19:40;18.48;;;9.90;;
15126;SDS011;7664;52.008;4.748;2024-01-11T03:22:11;16.27;;;10.38;;
15126;SDS011;7664;52.008;4.748;2024-01-11T03:24:44;19.75;;;10.93;;
15126;SDS011;7664;52.008;4.748;2024-01-11T03:27:13;18.80;;;10.73;;
15126;SDS011;7664;52.008;4.748;2024-01-11T03:29:44;19.35;;;10.88;;
15126;SDS011;7664;52.008;4.748;2024-01-11T03:32:14;18.88;;;10.82;;
15126;SDS011;7664;52.008;4.748;2024-01-11T03:34:43;23.00;;;11.50;;
15126;SDS011;7664;52.008;4.748;2024-01-11T03:37:11;18.23;;;11.07;;
15126;SDS011;7664;52.008;4.748;2024-01-11T03:39:40;20.27;;;11.32;;
15126;SDS011;7664;52.008;4.748;2024-01-11T03:42:10;18.35;;;11.98;;
15126;SDS011;7664;52.008;4.748;2024-01-11T03:44:41;20.60;;;13.20;;
15126;SDS011;7664;52.008;4.748;2024-01-11T03:47:10;21.20;;;13.23;;
15126;SDS011;7664;52.008;4.748;2024-01-11T03:49:49;21.52;;;13.82;;
15126;SDS011;7664;52.008;4.748;2024-01-11T03:52:17;19.30;;;12.25;;
15126;SDS011;7664;52.008;4.748;2024-01-11T03:54:48;20.73;;;12.50;;
15126;SDS011;7664;52.008;4.748;2024-01-11T03:57:19;21.70;;;13.40;;
15126;SDS011;7664;52.008;4.748;2024-01-11T03:59:50;22.98;;;13.25;;
15126;SDS011;7664;52.008;4.748;2024-01-11T04:02:18;23.30;;;14.30;;
15126;SDS011;7664;52.008;4.748;2024-01-11T04:04:48;20.65;;;12.63;;
15126;SDS011;7664;52.008;4.748;2024-01-11T04:07:20;26.85;;;15.30;;
15126;SDS011;7664;52.008;4.748;2024-01-11T04:09:50;25.55;;;15.10;;
15126;SDS011;7664;52.008;4.748;2024-01-11T04:12:20;23.08;;;14.57;;
15126;SDS011;7664;52.008;4.748;2024-01-11T04:14:49;25.33;;;14.35;;
15126;SDS011;7664;52.008;4.748;2024-01-11T04:17:17;23.27;;;15.52;;
15126;SDS011;7664;52.008;4.748;2024-01-11T04:19:46;23.98;;;14.82;;
15126;SDS011;7664;52.008;4.748;2024-01-11T04:22:16;22.50;;;14.52;;
15126;SDS011;7664;52.008;4.748;2024-01-11T04:24:47;23.65;;;15.10;;
15126;SDS011;7664;52.008;4.748;2024-01-11T04:27:18;27.45;;;16.05;;
15126;SDS011;7664;52.008;4.748;2024-01-11T04:29:46;24.42;;;14.45;;
15126;SDS011;7664;52.008;4.748;2024-01-11T04:32:14;26.25;;;16.55;;
15126;SDS011;7664;52.008;4.748;2024-01-11T04:34:42;27.05;;;15.60;;
15126;SDS011;7664;52.008;4.748;2024-01-11T04:37:13;23.33;;;15.00;;
15126;SDS011;7664;52.008;4.748;2024-01-11T04:39:45;25.05;;;15.55;;
15126;SDS011;7664;52.008;4.748;2024-01-11T04:42:14;30.38;;;16.98;;
15126;SDS011;7664;52.008;4.748;2024-01-11T04:44:43;27.08;;;17.23;;
15126;SDS011;7664;52.008;4.748;2024-01-11T04:47:11;27.05;;;17.10;;
15126;SDS011;7664;52.008;4.748;2024-01-11T04:49:40;25.92;;;16.08;;
15126;SDS011;7664;52.008;4.748;2024-01-11T04:52:08;30.15;;;16.23;;
15126;SDS011;7664;52.008;4.748;2024-01-11T04:54:39;24.83;;;16.25;;
15126;SDS011;7664;52.008;4.748;2024-01-11T04:57:09;29.10;;;17.35;;
15126;SDS011;7664;52.008;4.748;2024-01-11T04:59:38;29.10;;;18.13;;
15126;SDS011;7664;52.008;4.748;2024-01-11T05:02:07;29.90;;;17.77;;
15126;SDS011;7664;52.008;4.748;2024-01-11T05:04:38;25.33;;;16.50;;
15126;SDS011;7664;52.008;4.748;2024-01-11T05:07:07;25.35;;;17.50;;
15126;SDS011;7664;52.008;4.748;2024-01-11T05:09:36;29.10;;;19.25;;
15126;SDS011;7664;52.008;4.748;2024-01-11T05:12:11;30.58;;;18.65;;
15126;SDS011;7664;52.008;4.748;2024-01-11T05:14:39;24.77;;;17.17;;
15126;SDS011;7664;52.008;4.748;2024-01-11T05:17:08;26.88;;;16.60;;
15126;SDS011;7664;52.008;4.748;2024-01-11T05:19:41;30.92;;;18.77;;
15126;SDS011;7664;52.008;4.748;2024-01-11T05:22:12;30.90;;;18.25;;
15126;SDS011;7664;52.008;4.748;2024-01-11T05:24:40;27.55;;;17.15;;
15126;SDS011;7664;52.008;4.748;2024-01-11T05:27:11;26.10;;;18.02;;
15126;SDS011;7664;52.008;4.748;2024-01-11T05:29:39;27.15;;;16.77;;
15126;SDS011;7664;52.008;4.748;2024-01-11T05:32:08;30.98;;;17.00;;
15126;SDS011;7664;52.008;4.748;2024-01-11T05:34:37;34.47;;;20.20;;
15126;SDS011;7664;52.008;4.748;2024-01-11T05:37:08;28.20;;;18.20;;
15126;SDS011;7664;52.008;4.748;2024-01-11T05:39:37;30.88;;;19.88;;
15126;SDS011;7664;52.008;4.748;2024-01-11T05:42:06;32.58;;;19.27;;
15126;SDS011;7664;52.008;4.748;2024-01-11T05:44:36;33.00;;;20.50;;
15126;SDS011;7664;52.008;4.748;2024-01-11T05:47:05;28.65;;;18.48;;
15126;SDS011;7664;52.008;4.748;2024-01-11T05:49:33;26.75;;;17.60;;
15126;SDS011;7664;52.008;4.748;2024-01-11T05:52:02;30.97;;;20.83;;
15126;SDS011;7664;52.008;4.748;2024-01-11T05:54:31;31.75;;;19.17;;
15126;SDS011;7664;52.008;4.748;2024-01-11T05:57:05;30.83;;;18.17;;
15126;SDS011;7664;52.008;4.748;2024-01-11T05:59:34;28.02;;;18.02;;
15126;SDS011;7664;52.008;4.748;2024-01-11T06:02:04;31.08;;;19.05;;
15126;SDS011;7664;52.008;4.748;2024-01-11T06:04:32;31.98;;;18.65;;
15126;SDS011;7664;52.008;4.748;2024-01-11T06:07:16;29.05;;;18.30;;
15126;SDS011;7664;52.008;4.748;2024-01-11T06:10:01;32.22;;;18.63;;
15126;SDS011;7664;52.008;4.748;2024-01-11T06:12:31;32.90;;;19.67;;
15126;SDS011;7664;52.008;4.748;2024-01-11T06:15:00;30.50;;;18.02;;
15126;SDS011;7664;52.008;4.748;2024-01-11T06:17:30;26.05;;;17.63;;
15126;SDS011;7664;52.008;4.748;2024-01-11T06:19:59;27.13;;;16.75;;
15126;SDS011;7664;52.008;4.748;2024-01-11T06:22:28;30.33;;;18.60;;
15126;SDS011;7664;52.008;4.748;2024-01-11T06:24:56;31.10;;;19.88;;
15126;SDS011;7664;52.008;4.748;2024-01-11T06:27:26;28.95;;;19.85;;
15126;SDS011;7664;52.008;4.748;2024-01-11T06:29:57;31.15;;;20.33;;
15126;SDS011;7664;52.008;4.748;2024-01-11T06:32:26;34.03;;;21.02;;
15126;SDS011;7664;52.008;4.748;2024-01-11T06:35:01;33.13;;;20.52;;
15126;SDS011;7664;52.008;4.748;2024-01-11T06:37:30;31.83;;;20.40;;
15126;SDS011;7664;52.008;4.748;2024-01-11T06:39:59;35.42;;;21.05;;
15126;SDS011;7664;52.008;4.748;2024-01-11T06:42:30;34.17;;;22.13;;
15126;SDS011;7664;52.008;4.748;2024-01-11T06:44:59;32.40;;;19.10;;
15126;SDS011;7664;52.008;4.748;2024-01-11T06:47:27;35.03;;;22.08;;
15126;SDS011;7664;52.008;4.748;2024-01-11T06:49:58;36.45;;;21.10;;
15126;SDS011;7664;52.008;4.748;2024-01-11T06:52:29;32.03;;;18.50;;
15126;SDS011;7664;52.008;4.748;2024-01-11T06:54:57;34.70;;;21.58;;
15126;SDS011;7664;52.008;4.748;2024-01-11T06:57:28;33.70;;;20.48;;
15126;SDS011;7664;52.008;4.748;2024-01-11T06:59:57;34.00;;;21.38;;
15126;SDS011;7664;52.008;4.748;2024-01-11T07:02:28;33.42;;;20.55;;
15126;SDS011;7664;52.008;4.748;2024-01-11T07:04:57;35.78;;;21.48;;
15126;SDS011;7664;52.008;4.748;2024-01-11T07:07:30;33.55;;;21.35;;
15126;SDS011;7664;52.008;4.748;2024-01-11T07:09:59;39.63;;;22.65;;
15126;SDS011;7664;52.008;4.748;2024-01-11T07:12:32;36.97;;;23.48;;
15126;SDS011;7664;52.008;4.748;2024-01-11T07:15:00;36.95;;;23.67;;
15126;SDS011;7664;52.008;4.748;2024-01-11T07:17:31;43.20;;;23.52;;
15126;SDS011;7664;52.008;4.748;2024-01-11T07:20:03;40.25;;;24.50;;
15126;SDS011;7664;52.008;4.748;2024-01-11T07:22:33;33.72;;;21.63;;
15126;SDS011;7664;52.008;4.748;2024-01-11T07:25:04;36.55;;;20.35;;
15126;SDS011;7664;52.008;4.748;2024-01-11T07:27:32;37.55;;;22.42;;
15126;SDS011;7664;52.008;4.748;2024-01-11T07:30:02;37.75;;;23.05;;
15126;SDS011;7664;52.008;4.748;2024-01-11T07:32:38;36.20;;;22.63;;
15126;SDS011;7664;52.008;4.748;2024-01-11T07:35:07;38.17;;;23.73;;
15126;SDS011;7664;52.008;4.748;2024-01-11T07:37:43;34.67;;;21.45;;
15126;SDS011;7664;52.008;4.748;2024-01-11T07:40:11;36.85;;;23.25;;
15126;SDS011;7664;52.008;4.748;2024-01-11T07:42:42;37.95;;;24.35;;
15126;SDS011;7664;52.008;4.748;2024-01-11T07:45:12;39.05;;;21.67;;
15126;SDS011;7664;52.008;4.748;2024-01-11T07:47:41;41.58;;;22.50;;
15126;SDS011;7664;52.008;4.748;2024-01-11T07:50:09;35.72;;;21.67;;
15126;SDS011;7664;52.008;4.748;2024-01-11T07:52:39;35.08;;;21.05;;
15126;SDS011;7664;52.008;4.748;2024-01-11T07:55:11;33.15;;;20.63;;
15126;SDS011;7664;52.008;4.748;2024-01-11T07:57:40;36.67;;;22.85;;
15126;SDS011;7664;52.008;4.748;2024-01-11T08:00:11;32.03;;;20.23;;
15126;SDS011;7664;52.008;4.748;2024-01-11T08:02:46;35.20;;;23.23;;
15126;SDS011;7664;52.008;4.748;2024-01-11T08:05:15;34.58;;;22.48;;
15126;SDS011;7664;52.008;4.748;2024-01-11T08:07:48;38.60;;;24.63;;
15126;SDS011;7664;52.008;4.748;2024-01-11T08:10:18;38.70;;;24.55;;
15126;SDS011;7664;52.008;4.748;2024-01-11T08:12:49;35.70;;;21.27;;
15126;SDS011;7664;52.008;4.748;2024-01-11T08:15:20;36.35;;;22.95;;
15126;SDS011;7664;52.008;4.748;2024-01-11T08:17:51;37.35;;;22.88;;
15126;SDS011;7664;52.008;4.748;2024-01-11T08:20:22;37.95;;;23.42;;
15126;SDS011;7664;52.008;4.748;2024-01-11T08:22:57;39.35;;;24.98;;
15126;SDS011;7664;52.008;4.748;2024-01-11T08:25:31;39.22;;;23.13;;
15126;SDS011;7664;52.008;4.748;2024-01-11T08:27:59;38.25;;;21.98;;
15126;SDS011;7664;52.008;4.748;2024-01-11T08:30:29;39.30;;;24.30;;
15126;SDS011;7664;52.008;4.748;2024-01-11T08:32:57;39.03;;;23.63;;
15126;SDS011;7664;52.008;4.748;2024-01-11T08:35:26;37.47;;;23.83;;
15126;SDS011;7664;52.008;4.748;2024-01-11T08:38:02;39.20;;;21.88;;
15126;SDS011;7664;52.008;4.748;2024-01-11T08:40:32;32.85;;;22.02;;
15126;SDS011;7664;52.008;4.748;2024-01-11T08:43:04;40.47;;;22.77;;
15126;SDS011;7664;52.008;4.748;2024-01-11T08:45:33;37.60;;;23.60;;
15126;SDS011;7664;52.008;4.748;2024-01-11T08:48:01;38.20;;;24.77;;
15126;SDS011;7664;52.008;4.748;2024-01-11T08:50:32;37.08;;;21.95;;
15126;SDS011;7664;52.008;4.748;2024-01-11T08:53:05;37.58;;;22.77;;
15126;SDS011;7664;52.008;4.748;2024-01-11T08:55:35;40.08;;;23.90;;
15126;SDS011;7664;52.008;4.748;2024-01-11T08:58:08;33.80;;;22.27;;
15126;SDS011;7664;52.008;4.748;2024-01-11T09:00:38;37.72;;;23.35;;
15126;SDS011;7664;52.008;4.748;2024-01-11T09:03:07;37.50;;;22.98;;
15126;SDS011;7664;52.008;4.748;2024-01-11T09:05:36;38.42;;;23.15;;
15126;SDS011;7664;52.008;4.748;2024-01-11T09:08:06;37.83;;;23.85;;
15126;SDS011;7664;52.008;4.748;2024-01-11T09:10:36;35.50;;;22.45;;
15126;SDS011;7664;52.008;4.748;2024-01-11T09:13:05;36.08;;;22.58;;
15126;SDS011;7664;52.008;4.748;2024-01-11T09:15:39;36.47;;;21.38;;
15126;SDS011;7664;52.008;4.748;2024-01-11T09:18:08;35.38;;;22.05;;
15126;SDS011;7664;52.008;4.748;2024-01-11T09:20:37;36.00;;;21.27;;
15126;SDS011;7664;52.008;4.748;2024-01-11T09:23:06;36.05;;;20.95;;
15126;SDS011;7664;52.008;4.748;2024-01-11T09:25:37;37.42;;;22.73;;
15126;SDS011;7664;52.008;4.748;2024-01-11T09:28:06;36.15;;;21.25;;
15126;SDS011;7664;52.008;4.748;2024-01-11T09:30:35;37.55;;;20.88;;
15126;SDS011;7664;52.008;4.748;2024-01-11T09:33:04;33.58;;;21.42;;
15126;SDS011;7664;52.008;4.748;2024-01-11T09:35:33;38.65;;;21.88;;
15126;SDS011;7664;52.008;4.748;2024-01-11T09:38:01;36.15;;;21.92;;
15126;SDS011;7664;52.008;4.748;2024-01-11T09:40:30;39.88;;;21.40;;
15126;SDS011;7664;52.008;4.748;2024-01-11T09:43:01;35.22;;;20.50;;
15126;SDS011;7664;52.008;4.748;2024-01-11T09:45:33;30.30;;;19.60;;
15126;SDS011;7664;52.008;4.748;2024-01-11T09:48:08;32.30;;;18.63;;
15126;SDS011;7664;52.008;4.748;2024-01-11T09:50:39;31.83;;;19.77;;
15126;SDS011;7664;52.008;4.748;2024-01-11T09:53:10;29.90;;;19.20;;
15126;SDS011;7664;52.008;4.748;2024-01-11T09:55:39;32.13;;;18.30;;
15126;SDS011;7664;52.008;4.748;2024-01-11T09:58:11;26.30;;;17.77;;
15126;SDS011;7664;52.008;4.748;2024-01-11T10:00:40;29.13;;;16.38;;
15126;SDS011;7664;52.008;4.748;2024-01-11T10:03:10;31.90;;;16.05;;
15126;SDS011;7664;52.008;4.748;2024-01-11T10:05:39;29.48;;;16.88;;
15126;SDS011;7664;52.008;4.748;2024-01-11T10:08:11;27.52;;;14.55;;
15126;SDS011;7664;52.008;4.748;2024-01-11T10:10:42;24.55;;;14.00;;
15126;SDS011;7664;52.008;4.748;2024-01-11T10:13:12;30.80;;;16.98;;
15126;SDS011;7664;52.008;4.748;2024-01-11T10:15:41;26.20;;;14.75;;
15126;SDS011;7664;52.008;4.748;2024-01-11T10:18:12;26.75;;;14.23;;
15126;SDS011;7664;52.008;4.748;2024-01-11T10:20:52;26.92;;;14.32;;
15126;SDS011;7664;52.008;4.748;2024-01-11T10:23:22;25.98;;;14.77;;
15126;SDS011;7664;52.008;4.748;2024-01-11T10:26:08;26.08;;;14.82;;
15126;SDS011;7664;52.008;4.748;2024-01-11T10:28:44;29.88;;;15.73;;
15126;SDS011;7664;52.008;4.748;2024-01-11T10:31:13;30.60;;;16.63;;
15126;SDS011;7664;52.008;4.748;2024-01-11T10:33:42;27.77;;;14.48;;
15126;SDS011;7664;52.008;4.748;2024-01-11T10:36:17;24.58;;;14.35;;
15126;SDS011;7664;52.008;4.748;2024-01-11T10:38:48;30.20;;;16.02;;
15126;SDS011;7664;52.008;4.748;2024-01-11T10:41:18;26.27;;;14.93;;
15126;SDS011;7664;52.008;4.748;2024-01-11T10:43:54;26.38;;;15.88;;
15126;SDS011;7664;52.008;4.748;2024-01-11T10:46:29;26.50;;;14.63;;
15126;SDS011;7664;52.008;4.748;2024-01-11T10:48:59;28.40;;;15.43;;
15126;SDS011;7664;52.008;4.748;2024-01-11T10:51:30;30.02;;;16.10;;
15126;SDS011;7664;52.008;4.748;2024-01-11T10:54:00;25.30;;;15.40;;
15126;SDS011;7664;52.008;4.748;2024-01-11T10:56:31;24.70;;;14.75;;
15126;SDS011;7664;52.008;4.748;2024-01-11T10:59:11;25.08;;;13.95;;
15126;SDS011;7664;52.008;4.748;2024-01-11T11:01:41;29.20;;;15.07;;
15126;SDS011;7664;52.008;4.748;2024-01-11T11:04:23;26.10;;;13.38;;
15126;SDS011;7664;52.008;4.748;2024-01-11T11:06:54;28.20;;;14.82;;
15126;SDS011;7664;52.008;4.748;2024-01-11T11:09:25;27.23;;;14.77;;
15126;SDS011;7664;52.008;4.748;2024-01-11T11:11:58;23.98;;;14.52;;
15126;SDS011;7664;52.008;4.748;2024-01-11T11:14:28;27.40;;;14.80;;
15126;SDS011;7664;52.008;4.748;2024-01-11T11:16:56;25.90;;;14.38;;
15126;SDS011;7664;52.008;4.748;2024-01-11T11:19:25;25.33;;;14.10;;
15126;SDS011;7664;52.008;4.748;2024-01-11T11:21:53;24.80;;;13.73;;
15126;SDS011;7664;52.008;4.748;2024-01-11T11:24:22;21.92;;;12.70;;
15126;SDS011;7664;52.008;4.748;2024-01-11T11:26:52;22.73;;;14.05;;
15126;SDS011;7664;52.008;4.748;2024-01-11T11:29:26;24.08;;;12.88;;
15126;SDS011;7664;52.008;4.748;2024-01-11T11:31:56;25.73;;;14.60;;
15126;SDS011;7664;52.008;4.748;2024-01-11T11:34:39;22.60;;;14.18;;
15126;SDS011;7664;52.008;4.748;2024-01-11T11:37:12;28.30;;;14.90;;
15126;SDS011;7664;52.008;4.748;2024-01-11T11:39:41;21.42;;;12.52;;
15126;SDS011;7664;52.008;4.748;2024-01-11T11:42:11;21.80;;;13.00;;
15126;SDS011;7664;52.008;4.748;2024-01-11T11:44:47;23.27;;;13.20;;
15126;SDS011;7664;52.008;4.748;2024-01-11T11:47:19;22.10;;;12.85;;
15126;SDS011;7664;52.008;4.748;2024-01-11T11:49:56;20.98;;;12.07;;
15126;SDS011;7664;52.008;4.748;2024-01-11T11:52:32;19.75;;;13.15;;
15126;SDS011;7664;52.008;4.748;2024-01-11T11:55:01;20.13;;;11.18;;
15126;SDS011;7664;52.008;4.748;2024-01-11T11:57:30;21.67;;;12.48;;
15126;SDS011;7664;52.008;4.748;2024-01-11T11:59:59;22.40;;;12.75;;
15126;SDS011;7664;52.008;4.748;2024-01-11T12:02:37;20.27;;;11.90;;
15126;SDS011;7664;52.008;4.748;2024-01-11T12:05:07;23.63;;;12.38;;
15126;SDS011;7664;52.008;4.748;2024-01-11T12:07:36;22.52;;;13.05;;
15126;SDS011;7664;52.008;4.748;2024-01-11T12:10:06;19.02;;;12.05;;
15126;SDS011;7664;52.008;4.748;2024-01-11T12:12:38;19.60;;;11.52;;
15126;SDS011;7664;52.008;4.748;2024-01-11T12:15:07;18.48;;;11.40;;
15126;SDS011;7664;52.008;4.748;2024-01-11T12:17:39;19.45;;;11.95;;
15126;SDS011;7664;52.008;4.748;2024-01-11T12:20:10;18.75;;;11.73;;
15126;SDS011;7664;52.008;4.748;2024-01-11T12:22:42;20.02;;;11.75;;
15126;SDS011;7664;52.008;4.748;2024-01-11T12:25:13;20.85;;;11.70;;
15126;SDS011;7664;52.008;4.748;2024-01-11T12:27:42;21.88;;;11.90;;
15126;SDS011;7664;52.008;4.748;2024-01-11T12:30:11;19.70;;;11.38;;
15126;SDS011;7664;52.008;4.748;2024-01-11T12:32:44;20.40;;;11.77;;
15126;SDS011;7664;52.008;4.748;2024-01-11T12:35:14;19.98;;;12.05;;
15126;SDS011;7664;52.008;4.748;2024-01-11T12:37:52;19.67;;;11.75;;
15126;SDS011;7664;52.008;4.748;2024-01-11T12:40:22;20.42;;;11.57;;
15126;SDS011;7664;52.008;4.748;2024-01-11T12:42:53;18.42;;;12.35;;
15126;SDS011;7664;52.008;4.748;2024-01-11T12:45:24;17.48;;;11.38;;
15126;SDS011;7664;52.008;4.748;2024-01-11T12:47:55;20.10;;;12.85;;
15126;SDS011;7664;52.008;4.748;2024-01-11T12:50:24;20.58;;;13.35;;
15126;SDS011;7664;52.008;4.748;2024-01-11T12:53:09;18.30;;;12.75;;
15126;SDS011;7664;52.008;4.748;2024-01-11T12:55:45;18.45;;;12.02;;
15126;SDS011;7664;52.008;4.748;2024-01-11T12:58:23;19.08;;;12.25;;
15126;SDS011;7664;52.008;4.748;2024-01-11T13:00:54;16.95;;;11.25;;
15126;SDS011;7664;52.008;4.748;2024-01-11T13:03:25;17.25;;;11.65;;
15126;SDS011;7664;52.008;4.748;2024-01-11T13:05:54;14.95;;;10.43;;
15126;SDS011;7664;52.008;4.748;2024-01-11T13:08:24;18.00;;;12.07;;
15126;SDS011;7664;52.008;4.748;2024-01-11T13:10:54;17.65;;;12.70;;
15126;SDS011;7664;52.008;4.748;2024-01-11T13:13:23;19.88;;;12.95;;
15126;SDS011;7664;52.008;4.748;2024-01-11T13:15:54;16.95;;;11.85;;
15126;SDS011;7664;52.008;4.748;2024-01-11T13:18:23;19.55;;;12.57;;
15126;SDS011;7664;52.008;4.748;2024-01-11T13:20:53;15.45;;;11.93;;
15126;SDS011;7664;52.008;4.748;2024-01-11T13:23:22;17.25;;;11.45;;
15126;SDS011;7664;52.008;4.748;2024-01-11T13:25:51;19.17;;;12.82;;
15126;SDS011;7664;52.008;4.748;2024-01-11T13:28:20;17.27;;;11.85;;
15126;SDS011;7664;52.008;4.748;2024-01-11T13:30:51;16.63;;;11.02;;
15126;SDS011;7664;52.008;4.748;2024-01-11T13:33:19;15.95;;;11.07;;
15126;SDS011;7664;52.008;4.748;2024-01-11T13:35:51;18.63;;;11.82;;
15126;SDS011;7664;52.008;4.748;2024-01-11T13:38:22;14.85;;;10.82;;
15126;SDS011;7664;52.008;4.748;2024-01-11T13:40:52;16.05;;;10.98;;
15126;SDS011;7664;52.008;4.748;2024-01-11T13:43:21;17.33;;;11.95;;
15126;SDS011;7664;52.008;4.748;2024-01-11T13:45:50;19.67;;;12.30;;
15126;SDS011;7664;52.008;4.748;2024-01-11T13:48:20;14.80;;;10.65;;
15126;SDS011;7664;52.008;4.748;2024-01-11T13:50:49;17.55;;;10.63;;
15126;SDS011;7664;52.008;4.748;2024-01-11T13:53:18;16.65;;;11.65;;
15126;SDS011;7664;52.008;4.748;2024-01-11T13:55:48;16.27;;;11.23;;
15126;SDS011;7664;52.008;4.748;2024-01-11T13:58:17;17.23;;;11.35;;
15126;SDS011;7664;52.008;4.748;2024-01-11T14:00:48;18.42;;;11.45;;
15126;SDS011;7664;52.008;4.748;2024-01-11T14:03:21;18.52;;;11.10;;
15126;SDS011;7664;52.008;4.748;2024-01-11T14:05:50;16.60;;;11.00;;
15126;SDS011;7664;52.008;4.748;2024-01-11T14:08:18;17.35;;;10.82;;
15126;SDS011;7664;52.008;4.748;2024-01-11T14:10:49;15.20;;;10.68;;
15126;SDS011;7664;52.008;4.748;2024-01-11T14:13:20;17.00;;;11.48;;
15126;SDS011;7664;52.008;4.748;2024-01-11T14:15:51;16.58;;;10.80;;
15126;SDS011;7664;52.008;4.748;2024-01-11T14:18:20;14.23;;;10.18;;
15126;SDS011;7664;52.008;4.748;2024-01-11T14:20:53;17.08;;;11.35;;
15126;SDS011;7664;52.008;4.748;2024-01-11T14:23:22;15.48;;;10.55;;
15126;SDS011;7664;52.008;4.748;2024-01-11T14:25:54;16.60;;;10.93;;
15126;SDS011;7664;52.008;4.748;2024-01-11T14:28:23;17.52;;;11.90;;
15126;SDS011;7664;52.008;4.748;2024-01-11T14:30:52;16.70;;;11.15;;
15126;SDS011;7664;52.008;4.748;2024-01-11T14:33:23;13.38;;;9.98;;
15126;SDS011;7664;52.008;4.748;2024-01-11T14:35:52;18.15;;;12.15;;
15126;SDS011;7664;52.008;4.748;2024-01-11T14:38:22;16.35;;;10.90;;
15126;SDS011;7664;52.008;4.748;2024-01-11T14:40:50;16.65;;;11.55;;
15126;SDS011;7664;52.008;4.748;2024-01-11T14:43:25;16.63;;;11.93;;
15126;SDS011;7664;52.008;4.748;2024-01-11T14:45:53;17.35;;;10.68;;
15126;SDS011;7664;52.008;4.748;2024-01-11T14:48:22;16.15;;;10.45;;
15126;SDS011;7664;52.008;4.748;2024-01-11T14:50:51;17.58;;;11.73;;
15126;SDS011;7664;52.008;4.748;2024-01-11T14:53:20;15.77;;;10.93;;
15126;SDS011;7664;52.008;4.748;2024-01-11T14:55:48;13.90;;;10.07;;